Time;durP1;ratioP1;P1;durP2;ratioP2;P2;SDS_P1;SDS_P2;PMS_P1;PMS_P2;Temp;Humidity;BMP_temperature;BMP_pressure;BME280_temperature;BME280_humidity;BME280_pressure;Samples;Min_cycle;Max_cycle;Signal;HPM_P1;HPM_P2
2023/03/27 00:01:48;;;;;;;6.10;2.20;;;4.20;71.10;;;;;;5089963;28;20023;-68
2023/03/27 00:04:14;;;;;;;4.47;1.95;;;4.20;70.30;;;;;;5076628;28;20032;-68
2023/03/27 00:06:40;;;;;;;6.55;2.22;;;4.30;70.50;;;;;;5076762;28;20020;-67
2023/03/27 00:09:07;;;;;;;4.93;2.13;;;4.30;69.50;;;;;;5090786;28;20089;-68
2023/03/27 00:11:38;;;;;;;4.97;1.90;;;4.20;69.90;;;;;;5093314;28;20031;-68
2023/03/27 00:14:04;;;;;;;7.40;2.15;;;4.20;68.70;;;;;;5078515;28;20031;-68
2023/03/27 00:16:30;;;;;;;5.18;2.03;;;4.20;69.00;;;;;;5084508;28;20024;-68
2023/03/27 00:18:56;;;;;;;4.88;1.88;;;4.20;68.50;;;;;;5076132;28;20017;-68
2023/03/27 00:21:22;;;;;;;4.63;1.83;;;4.20;68.20;;;;;;5079796;28;20032;-67
2023/03/27 00:23:49;;;;;;;4.53;1.90;;;4.20;69.10;;;;;;5090875;28;20840;-67
2023/03/27 00:26:15;;;;;;;5.43;1.80;;;4.20;70.20;;;;;;5088282;28;20036;-67
2023/03/27 00:28:40;;;;;;;3.95;1.70;;;4.10;70.40;;;;;;5089354;28;20317;-67
2023/03/27 00:31:11;;;;;;;4.30;2.20;;;4.10;71.30;;;;;;5084450;28;20052;-67
2023/03/27 00:33:37;;;;;;;4.45;2.00;;;4.10;70.50;;;;;;5077473;28;20299;-67
2023/03/27 00:36:02;;;;;;;4.70;2.00;;;4.10;70.30;;;;;;5081869;28;20035;-67
2023/03/27 00:38:28;;;;;;;3.30;1.50;;;4.10;69.80;;;;;;5077971;28;20028;-67
2023/03/27 00:40:55;;;;;;;3.40;1.42;;;4.10;70.60;;;;;;5079256;28;20031;-67
2023/03/27 00:43:25;;;;;;;4.00;1.67;;;4.10;70.20;;;;;;5084947;28;20066;-67
2023/03/27 00:45:54;;;;;;;4.35;1.50;;;4.10;69.70;;;;;;5085431;28;20024;-67
2023/03/27 00:48:20;;;;;;;3.17;1.35;;;4.10;70.60;;;;;;5087730;28;20024;-67
2023/03/27 00:50:48;;;;;;;4.22;1.52;;;4.10;70.60;;;;;;5086447;28;20103;-67
2023/03/27 00:53:20;;;;;;;3.38;1.50;;;4.10;69.70;;;;;;5077457;28;20016;-67
2023/03/27 00:55:50;;;;;;;2.78;1.40;;;4.10;69.60;;;;;;5080681;28;20096;-67
2023/03/27 00:58:21;;;;;;;3.10;1.35;;;4.10;69.90;;;;;;5082491;28;21583;-67
2023/03/27 01:00:51;;;;;;;3.17;1.30;;;4.00;70.00;;;;;;5076983;28;20032;-66
2023/03/27 01:03:18;;;;;;;2.92;1.60;;;4.00;69.80;;;;;;5090828;28;20028;-67
2023/03/27 01:05:45;;;;;;;3.00;1.40;;;4.00;69.60;;;;;;5085197;28;20302;-67
2023/03/27 01:08:11;;;;;;;4.38;1.67;;;3.90;68.90;;;;;;5088497;28;20024;-68
2023/03/27 01:11:10;;;;;;;3.38;1.60;;;3.90;70.50;;;;;;5080909;28;20035;-67
2023/03/27 01:13:44;;;;;;;3.13;1.90;;;3.90;69.60;;;;;;5077282;28;20043;-68
2023/03/27 01:16:19;;;;;;;3.58;1.80;;;3.90;69.00;;;;;;5082837;28;20028;-67
2023/03/27 01:19:21;;;;;;;4.53;2.00;;;3.90;68.20;;;;;;5078990;28;20471;-68
2023/03/27 01:22:17;;;;;;;3.42;2.10;;;3.90;67.50;;;;;;5077054;28;20353;-68
2023/03/27 01:25:21;;;;;;;3.45;1.95;;;3.80;67.40;;;;;;5079145;28;20025;-68
2023/03/27 01:27:53;;;;;;;4.20;2.20;;;3.80;68.20;;;;;;5077377;28;20040;-68
2023/03/27 01:30:28;;;;;;;4.13;2.00;;;3.70;67.60;;;;;;5077271;28;20039;-68
2023/03/27 01:33:31;;;;;;;4.65;2.70;;;3.70;67.60;;;;;;5086821;28;20031;-68
2023/03/27 01:36:26;;;;;;;4.90;2.70;;;3.60;67.10;;;;;;5082875;28;20024;-68
2023/03/27 01:39:10;;;;;;;5.63;3.35;;;3.60;66.30;;;;;;5067026;28;20170;-68
2023/03/27 01:41:45;;;;;;;5.22;3.47;;;3.60;66.20;;;;;;5082727;28;20035;-67
2023/03/27 01:44:48;;;;;;;4.90;3.20;;;3.60;66.30;;;;;;5082923;28;20028;-67
2023/03/27 01:47:44;;;;;;;6.45;3.08;;;3.50;66.30;;;;;;5092264;28;20020;-67
2023/03/27 01:50:19;;;;;;;5.47;3.92;;;3.50;65.80;;;;;;5084154;28;20025;-67
2023/03/27 01:53:06;;;;;;;5.07;3.45;;;3.50;65.60;;;;;;5081511;28;20973;-67
2023/03/27 01:55:37;;;;;;;7.00;4.20;;;3.40;65.40;;;;;;5084590;28;20031;-68
2023/03/27 01:58:12;;;;;;;5.22;3.50;;;3.40;64.90;;;;;;5092033;28;20314;-68
2023/03/27 02:00:41;;;;;;;6.03;4.20;;;3.40;65.10;;;;;;5088574;28;20403;-68
2023/03/27 02:03:27;;;;;;;5.88;3.95;;;3.40;65.00;;;;;;5077826;28;20489;-68
2023/03/27 02:06:02;;;;;;;6.88;4.57;;;3.40;65.00;;;;;;5093746;28;20028;-67
2023/03/27 02:09:05;;;;;;;7.13;4.72;;;3.40;64.50;;;;;;5081702;28;20070;-67
2023/03/27 02:12:03;;;;;;;6.30;4.18;;;3.40;64.80;;;;;;5075585;28;20094;-67
2023/03/27 02:14:35;;;;;;;6.63;4.63;;;3.40;64.70;;;;;;5077907;28;20095;-66
2023/03/27 02:17:08;;;;;;;7.85;5.25;;;3.40;64.60;;;;;;5077453;28;20027;-67
2023/03/27 02:19:41;;;;;;;6.93;4.93;;;3.40;64.60;;;;;;5079996;28;20024;-68
2023/03/27 02:22:06;;;;;;;8.02;5.43;;;3.40;64.60;;;;;;5078631;28;20051;-68
2023/03/27 02:24:32;;;;;;;6.18;4.30;;;3.40;64.70;;;;;;5088440;28;20391;-68
2023/03/27 02:27:08;;;;;;;6.43;4.00;;;3.40;64.60;;;;;;5079980;28;20035;-67
2023/03/27 02:29:41;;;;;;;7.95;4.13;;;3.30;64.70;;;;;;5085943;28;20032;-67
2023/03/27 02:32:31;;;;;;;7.23;3.80;;;3.20;64.80;;;;;;5089667;28;20024;-67
2023/03/27 02:35:01;;;;;;;7.35;4.55;;;3.20;65.70;;;;;;5084283;28;20306;-67
2023/03/27 02:37:40;;;;;;;7.13;4.72;;;3.10;65.90;;;;;;5084033;28;20032;-66
2023/03/27 02:40:30;;;;;;;8.95;5.10;;;3.00;65.40;;;;;;5084589;28;20417;-66
2023/03/27 02:43:16;;;;;;;9.35;5.78;;;3.00;65.60;;;;;;5082508;28;20028;-68
2023/03/27 02:45:58;;;;;;;10.98;5.53;;;3.00;65.80;;;;;;5084087;28;20031;-67
2023/03/27 02:48:35;;;;;;;11.52;6.47;;;3.00;65.90;;;;;;5093203;28;20374;-67
2023/03/27 02:51:07;;;;;;;14.55;8.50;;;2.90;65.80;;;;;;5078117;28;20029;-66
2023/03/27 02:53:45;;;;;;;15.02;9.25;;;2.90;65.90;;;;;;5084312;28;20039;-67
2023/03/27 02:56:13;;;;;;;20.17;10.85;;;2.80;66.40;;;;;;5087301;28;20069;-67
2023/03/27 02:58:56;;;;;;;20.15;11.68;;;2.80;66.80;;;;;;5080439;28;20063;-66
2023/03/27 03:01:25;;;;;;;20.30;12.05;;;2.70;66.70;;;;;;5081299;28;20051;-67
2023/03/27 03:04:18;;;;;;;29.13;14.85;;;2.70;66.00;;;;;;5082429;28;20316;-66
2023/03/27 03:06:44;;;;;;;28.77;14.45;;;2.70;66.10;;;;;;5083367;28;20028;-67
2023/03/27 03:09:13;;;;;;;31.27;16.13;;;2.70;65.70;;;;;;5087099;28;20041;-68
2023/03/27 03:11:45;;;;;;;25.95;13.90;;;2.70;66.00;;;;;;5087678;28;20021;-68
2023/03/27 03:14:13;;;;;;;20.63;12.25;;;2.60;66.00;;;;;;5080128;28;20032;-68
2023/03/27 03:16:38;;;;;;;21.08;10.63;;;2.60;66.10;;;;;;5089420;28;20027;-67
2023/03/27 03:19:04;;;;;;;19.67;10.75;;;2.50;68.70;;;;;;5086898;28;20024;-67
2023/03/27 03:21:30;;;;;;;20.65;11.00;;;2.50;68.80;;;;;;5088184;28;20115;-66
2023/03/27 03:23:56;;;;;;;20.88;10.07;;;2.40;68.00;;;;;;5080522;28;20435;-67
2023/03/27 03:26:22;;;;;;;24.00;11.57;;;2.40;68.80;;;;;;5094036;28;20039;-67
2023/03/27 03:28:47;;;;;;;18.95;8.93;;;2.40;70.90;;;;;;5079583;28;20081;-67
2023/03/27 03:31:13;;;;;;;19.08;9.82;;;2.30;70.00;;;;;;5081166;28;20021;-67
2023/03/27 03:33:39;;;;;;;18.30;9.68;;;2.20;74.80;;;;;;5087250;28;20456;-66
2023/03/27 03:36:06;;;;;;;18.98;9.65;;;2.10;74.80;;;;;;5080372;28;20028;-65
2023/03/27 03:38:34;;;;;;;19.55;9.15;;;2.10;74.10;;;;;;5078967;28;20317;-67
2023/03/27 03:41:00;;;;;;;19.95;9.95;;;2.10;73.40;;;;;;5079426;28;20444;-67
2023/03/27 03:43:28;;;;;;;19.15;8.88;;;2.10;72.80;;;;;;5077366;28;20032;-67
2023/03/27 03:45:54;;;;;;;21.95;9.20;;;2.00;75.90;;;;;;5097931;28;20032;-67
2023/03/27 03:48:21;;;;;;;18.73;8.13;;;1.80;80.80;;;;;;5084929;28;20029;-66
2023/03/27 03:50:48;;;;;;;18.10;7.63;;;1.70;83.30;;;;;;5079590;28;20043;-66
2023/03/27 03:53:16;;;;;;;14.93;7.30;;;1.60;82.40;;;;;;5074888;28;20016;-67
2023/03/27 03:55:43;;;;;;;23.52;8.65;;;1.60;82.90;;;;;;5081131;28;20070;-66
2023/03/27 03:58:08;;;;;;;18.45;8.23;;;1.60;82.70;;;;;;5083498;28;20076;-66
2023/03/27 04:00:37;;;;;;;18.95;8.48;;;1.50;81.90;;;;;;5087306;28;20435;-66
2023/03/27 04:03:04;;;;;;;18.10;6.93;;;1.50;83.00;;;;;;5084761;28;20024;-67
2023/03/27 04:05:30;;;;;;;16.02;7.10;;;1.50;84.90;;;;;;5086634;28;20089;-66
2023/03/27 04:08:01;;;;;;;19.63;7.25;;;1.40;85.50;;;;;;5088764;28;20107;-65
2023/03/27 04:10:28;;;;;;;20.10;7.10;;;1.40;86.10;;;;;;5093617;28;20028;-66
2023/03/27 04:12:55;;;;;;;24.00;8.10;;;1.40;86.50;;;;;;5091709;28;20020;-65
2023/03/27 04:15:21;;;;;;;21.25;7.15;;;1.30;86.50;;;;;;5089959;28;20023;-66
2023/03/27 04:17:47;;;;;;;17.77;5.72;;;1.30;88.50;;;;;;5086567;28;20487;-65
2023/03/27 04:20:13;;;;;;;19.98;5.15;;;1.30;91.70;;;;;;5094056;28;20012;-66
2023/03/27 04:22:48;;;;;;;16.75;6.10;;;1.20;95.00;;;;;;5089925;28;20027;-66
2023/03/27 04:25:16;;;;;;;17.80;6.13;;;1.10;95.10;;;;;;5085936;28;21160;-65
2023/03/27 04:27:42;;;;;;;15.05;4.53;;;1.00;95.30;;;;;;5089077;28;20362;-66
2023/03/27 04:30:09;;;;;;;13.30;4.75;;;1.00;95.90;;;;;;5084508;28;20295;-66
2023/03/27 04:32:35;;;;;;;20.65;5.03;;;0.90;94.70;;;;;;5092816;28;20016;-66
2023/03/27 04:35:01;;;;;;;14.70;4.90;;;0.90;95.40;;;;;;5089918;28;20056;-66
2023/03/27 04:37:27;;;;;;;16.38;6.03;;;0.90;94.10;;;;;;5090523;28;20710;-66
2023/03/27 04:39:53;;;;;;;12.73;4.40;;;0.90;94.30;;;;;;5086372;28;20294;-65
2023/03/27 04:42:22;;;;;;;13.18;4.63;;;0.80;97.70;;;;;;5082000;28;20098;-66
2023/03/27 04:44:51;;;;;;;16.60;4.68;;;0.80;96.60;;;;;;5079091;28;20060;-65
2023/03/27 04:47:17;;;;;;;13.88;4.15;;;0.70;96.10;;;;;;5083902;28;20040;-65
2023/03/27 04:49:45;;;;;;;14.35;4.78;;;0.70;98.00;;;;;;5095134;28;20115;-65
2023/03/27 04:52:13;;;;;;;9.15;4.25;;;0.70;98.00;;;;;;5078594;28;20052;-68
2023/03/27 04:54:40;;;;;;;10.55;3.22;;;0.60;98.00;;;;;;5094358;28;20025;-67
2023/03/27 04:57:06;;;;;;;9.68;3.95;;;0.60;97.90;;;;;;5091460;28;20052;-67
2023/03/27 04:59:32;;;;;;;13.38;3.92;;;0.60;97.30;;;;;;5077479;28;20476;-67
2023/03/27 05:01:58;;;;;;;17.02;4.15;;;0.60;98.00;;;;;;5076506;28;20341;-66
2023/03/27 05:04:27;;;;;;;18.48;4.65;;;0.60;96.80;;;;;;5089002;28;20032;-66
2023/03/27 05:06:53;;;;;;;16.67;4.07;;;0.60;96.90;;;;;;5090412;28;20035;-66
2023/03/27 05:09:19;;;;;;;15.88;4.75;;;0.60;97.50;;;;;;5085502;28;20032;-66
2023/03/27 05:11:48;;;;;;;19.65;6.93;;;0.60;96.40;;;;;;5087834;28;20417;-66
2023/03/27 05:14:18;;;;;;;22.23;5.85;;;0.60;96.80;;;;;;5091077;28;20066;-66
2023/03/27 05:16:44;;;;;;;21.73;5.65;;;0.50;96.10;;;;;;5077798;28;20405;-66
2023/03/27 05:19:11;;;;;;;19.33;5.82;;;0.50;95.10;;;;;;5085735;28;20104;-66
2023/03/27 05:21:37;;;;;;;15.95;5.43;;;0.50;95.50;;;;;;5089391;28;20020;-66
2023/03/27 05:24:03;;;;;;;21.08;6.68;;;0.40;95.30;;;;;;5092805;28;20480;-66
2023/03/27 05:26:29;;;;;;;26.13;7.35;;;0.40;94.40;;;;;;5079557;28;20071;-65
2023/03/27 05:28:57;;;;;;;20.35;5.57;;;0.40;94.20;;;;;;5081639;28;20094;-66
2023/03/27 05:31:23;;;;;;;20.90;7.38;;;0.40;95.80;;;;;;5088483;28;20378;-65
2023/03/27 05:33:50;;;;;;;18.88;6.50;;;0.40;95.90;;;;;;5077833;28;20071;-66
2023/03/27 05:36:16;;;;;;;21.73;7.10;;;0.40;95.30;;;;;;5087640;28;20031;-66
2023/03/27 05:38:43;;;;;;;18.95;6.63;;;0.40;95.00;;;;;;5079469;28;20020;-65
2023/03/27 05:41:11;;;;;;;21.38;6.40;;;0.40;95.00;;;;;;5085836;28;20021;-66
2023/03/27 05:43:37;;;;;;;21.38;5.97;;;0.40;94.80;;;;;;5093423;28;20028;-65
2023/03/27 05:46:03;;;;;;;20.95;4.97;;;0.40;94.50;;;;;;5089564;28;21691;-66
2023/03/27 05:48:29;;;;;;;15.38;5.43;;;0.40;97.20;;;;;;5095778;28;20371;-65
2023/03/27 05:50:54;;;;;;;25.20;6.47;;;0.40;97.60;;;;;;5093033;28;20031;-65
2023/03/27 05:53:20;;;;;;;23.88;7.20;;;0.40;96.20;;;;;;5094378;28;20021;-65
2023/03/27 05:55:46;;;;;;;22.75;5.13;;;0.40;96.30;;;;;;5094884;28;20028;-65
2023/03/27 05:58:12;;;;;;;20.17;4.82;;;0.40;96.90;;;;;;5079665;28;20410;-65
2023/03/27 06:00:41;;;;;;;18.70;5.72;;;0.40;97.60;;;;;;5079626;28;20108;-66
2023/03/27 06:03:08;;;;;;;17.45;4.93;;;0.40;97.40;;;;;;5096726;28;20086;-65
2023/03/27 06:05:34;;;;;;;17.55;5.13;;;0.50;96.40;;;;;;5099745;28;20081;-65
2023/03/27 06:08:00;;;;;;;17.35;4.65;;;0.60;98.00;;;;;;5098584;28;20032;-65
2023/03/27 06:10:28;;;;;;;19.77;5.47;;;0.60;97.30;;;;;;5098666;28;20153;-66
2023/03/27 06:13:08;;;;;;;21.40;6.53;;;0.60;97.10;;;;;;5096300;28;20031;-66
2023/03/27 06:15:37;;;;;;;19.35;4.75;;;0.70;97.70;;;;;;5099628;28;20032;-65
2023/03/27 06:18:02;;;;;;;16.50;4.80;;;0.60;98.00;;;;;;5079985;28;20050;-65
2023/03/27 06:20:28;;;;;;;16.10;5.22;;;0.50;98.00;;;;;;5079166;28;20098;-65
2023/03/27 06:22:58;;;;;;;17.80;4.68;;;0.50;98.00;;;;;;5080441;28;20458;-65
2023/03/27 06:25:25;;;;;;;16.63;5.03;;;0.50;98.00;;;;;;5079350;28;20024;-65
2023/03/27 06:27:52;;;;;;;13.75;4.97;;;0.60;98.00;;;;;;5077675;28;20035;-66
2023/03/27 06:30:20;;;;;;;24.08;5.15;;;0.70;98.00;;;;;;5096859;28;20031;-66
2023/03/27 06:32:48;;;;;;;23.60;5.85;;;0.70;98.00;;;;;;5096030;28;20059;-66
2023/03/27 06:35:14;;;;;;;18.30;5.68;;;0.80;98.00;;;;;;5094109;28;20027;-65
2023/03/27 06:37:41;;;;;;;17.45;5.38;;;0.80;98.00;;;;;;5089899;28;20036;-65
2023/03/27 06:40:09;;;;;;;20.92;5.97;;;1.00;98.00;;;;;;5080945;28;20035;-65
2023/03/27 06:42:35;;;;;;;26.75;10.48;;;1.00;98.00;;;;;;5082217;28;20116;-66
2023/03/27 06:45:02;;;;;;;15.10;4.25;;;1.10;98.00;;;;;;5079300;28;20025;-65
2023/03/27 06:47:28;;;;;;;16.55;6.40;;;1.00;98.00;;;;;;5097146;28;20028;-66
2023/03/27 06:49:54;;;;;;;21.83;8.65;;;0.80;98.00;;;;;;5097681;28;20301;-65
2023/03/27 06:52:20;;;;;;;14.45;4.35;;;0.80;98.00;;;;;;5096426;28;20028;-66
2023/03/27 06:54:45;;;;;;;22.05;6.28;;;0.70;98.00;;;;;;5093835;28;20020;-65
2023/03/27 06:57:11;;;;;;;15.20;5.03;;;0.70;98.00;;;;;;5079705;28;20068;-66
2023/03/27 06:59:37;;;;;;;20.20;5.75;;;0.60;98.00;;;;;;5092572;28;20024;-65
2023/03/27 07:02:02;;;;;;;22.10;7.18;;;0.60;98.00;;;;;;5096308;28;20439;-65
2023/03/27 07:04:28;;;;;;;17.30;4.88;;;0.60;98.00;;;;;;5098658;28;20308;-65
2023/03/27 07:06:54;;;;;;;17.08;5.22;;;0.60;98.00;;;;;;5095689;28;20372;-65
2023/03/27 07:09:19;;;;;;;15.73;5.43;;;0.50;98.00;;;;;;5089597;28;20086;-65
2023/03/27 07:11:45;;;;;;;18.85;6.47;;;0.50;98.00;;;;;;5094330;28;20378;-65
2023/03/27 07:14:10;;;;;;;18.58;4.78;;;0.50;98.00;;;;;;5082012;28;20027;-65
2023/03/27 07:16:36;;;;;;;17.77;5.10;;;0.50;98.00;;;;;;5084212;28;20046;-65
2023/03/27 07:19:04;;;;;;;16.15;4.95;;;0.50;98.00;;;;;;5085317;28;20107;-65
2023/03/27 07:21:29;;;;;;;11.43;4.93;;;0.60;98.00;;;;;;5079219;28;20082;-65
2023/03/27 07:23:58;;;;;;;19.95;6.97;;;0.60;98.00;;;;;;5093605;28;20021;-65
2023/03/27 07:26:24;;;;;;;22.65;7.00;;;0.60;98.00;;;;;;5079425;28;20024;-65
2023/03/27 07:28:50;;;;;;;18.77;4.63;;;0.60;98.00;;;;;;5097051;28;20050;-65
2023/03/27 07:31:19;;;;;;;26.95;5.93;;;0.60;98.00;;;;;;5094734;28;20071;-65
2023/03/27 07:33:45;;;;;;;17.05;5.28;;;0.60;98.00;;;;;;5098093;28;20022;-65
2023/03/27 07:36:11;;;;;;;17.50;4.75;;;0.60;98.00;;;;;;5093768;28;20356;-65
2023/03/27 07:38:41;;;;;;;19.10;5.38;;;0.60;98.00;;;;;;5086077;28;20031;-64
2023/03/27 07:41:08;;;;;;;19.45;7.28;;;0.60;98.00;;;;;;5076336;28;20034;-64
2023/03/27 07:43:33;;;;;;;22.55;6.68;;;0.60;98.00;;;;;;5076393;28;20020;-64
2023/03/27 07:46:01;;;;;;;16.40;4.25;;;0.60;98.00;;;;;;5083850;28;20043;-67
2023/03/27 07:48:27;;;;;;;21.02;6.85;;;0.60;98.00;;;;;;5097868;28;20358;-67
2023/03/27 07:50:57;;;;;;;25.90;6.72;;;0.70;98.00;;;;;;5093400;28;20023;-66
2023/03/27 07:53:24;;;;;;;18.27;5.20;;;0.70;98.00;;;;;;5096035;28;20024;-66
2023/03/27 07:55:51;;;;;;;23.77;5.65;;;0.80;98.00;;;;;;5095518;28;20024;-66
2023/03/27 07:58:20;;;;;;;18.27;5.45;;;0.80;98.00;;;;;;5085695;28;20064;-67
2023/03/27 08:00:50;;;;;;;16.27;4.45;;;0.90;98.00;;;;;;5078830;28;20020;-65
2023/03/27 08:03:16;;;;;;;20.65;6.75;;;1.00;98.00;;;;;;5077323;28;20413;-65
2023/03/27 08:05:41;;;;;;;18.55;4.03;;;1.10;98.00;;;;;;5076797;28;20025;-65
2023/03/27 08:08:08;;;;;;;20.17;6.65;;;1.10;98.00;;;;;;5097194;28;20043;-65
2023/03/27 08:10:34;;;;;;;18.00;4.38;;;1.10;98.00;;;;;;5090041;28;20102;-65
2023/03/27 08:12:59;;;;;;;10.68;4.03;;;1.10;98.00;;;;;;5085756;28;20020;-65
2023/03/27 08:15:25;;;;;;;17.08;4.80;;;1.10;98.00;;;;;;5106218;28;20020;-66
2023/03/27 08:17:55;;;;;;;14.50;4.75;;;1.10;98.00;;;;;;5102769;28;20023;-66
2023/03/27 08:20:22;;;;;;;15.15;4.35;;;1.20;98.00;;;;;;5094498;28;20103;-66
2023/03/27 08:22:52;;;;;;;13.15;5.30;;;1.20;98.00;;;;;;5097276;28;20026;-66
2023/03/27 08:25:18;;;;;;;15.88;4.25;;;1.40;98.00;;;;;;5080691;28;20020;-66
2023/03/27 08:27:44;;;;;;;14.98;4.00;;;1.50;98.00;;;;;;5086238;28;20127;-66
2023/03/27 08:30:11;;;;;;;14.52;4.50;;;1.50;97.60;;;;;;5077216;28;20100;-66
2023/03/27 08:32:38;;;;;;;14.27;3.67;;;1.40;97.60;;;;;;5076815;28;20115;-66
2023/03/27 08:35:05;;;;;;;13.10;3.65;;;1.50;98.00;;;;;;5087001;28;20316;-65
2023/03/27 08:37:32;;;;;;;12.82;3.58;;;1.50;97.70;;;;;;5094888;28;20016;-66
2023/03/27 08:39:57;;;;;;;15.93;3.47;;;1.60;97.80;;;;;;5093547;28;20028;-66
2023/03/27 08:42:33;;;;;;;16.90;4.53;;;1.50;96.80;;;;;;5095765;28;20417;-66
2023/03/27 08:45:07;;;;;;;14.30;3.90;;;1.50;97.40;;;;;;5093997;28;20424;-66
2023/03/27 08:47:39;;;;;;;12.05;3.20;;;1.70;96.70;;;;;;5096635;28;20028;-66
2023/03/27 08:50:22;;;;;;;14.98;3.47;;;1.70;96.30;;;;;;5078782;28;20360;-66
2023/03/27 08:52:49;;;;;;;15.80;3.00;;;1.90;95.70;;;;;;5076485;28;20032;-66
2023/03/27 08:55:19;;;;;;;13.18;3.17;;;2.00;95.30;;;;;;5075244;28;20037;-66
2023/03/27 08:57:45;;;;;;;16.75;3.17;;;2.20;94.70;;;;;;5076722;28;20044;-66
2023/03/27 09:00:21;;;;;;;16.70;3.45;;;2.40;94.90;;;;;;5083714;28;20428;-66
2023/03/27 09:03:00;;;;;;;16.88;3.88;;;2.30;94.00;;;;;;5075912;28;20155;-66
2023/03/27 09:05:54;;;;;;;14.10;3.80;;;2.20;94.40;;;;;;5075864;28;20117;-66
2023/03/27 09:08:51;;;;;;;10.52;4.45;;;2.40;94.10;;;;;;5075916;28;20033;-66
2023/03/27 09:12:15;;;;;;;12.80;3.10;;;2.70;94.10;;;;;;5076184;28;20124;-66
2023/03/27 09:14:47;;;;;;;14.43;4.07;;;2.90;92.10;;;;;;5070757;28;20063;-66
2023/03/27 09:17:22;;;;;;;14.65;4.00;;;3.40;90.80;;;;;;5071689;28;20383;-65
2023/03/27 09:20:07;;;;;;;13.63;5.22;;;3.70;88.90;;;;;;5093167;28;20290;-66
2023/03/27 09:22:40;;;;;;;8.80;2.83;;;4.00;88.80;;;;;;5096151;28;20075;-65
2023/03/27 09:25:36;;;;;;;15.27;3.33;;;3.80;86.90;;;;;;5093205;28;20025;-65
2023/03/27 09:28:08;;;;;;;17.13;5.03;;;3.80;86.00;;;;;;5083644;28;20032;-66
2023/03/27 09:30:34;;;;;;;12.13;3.30;;;3.80;85.60;;;;;;5095449;28;20042;-66
2023/03/27 09:33:04;;;;;;;13.65;4.80;;;4.00;85.70;;;;;;5091699;28;20024;-66
2023/03/27 09:35:31;;;;;;;12.65;3.58;;;4.40;84.50;;;;;;5095442;28;20031;-66
2023/03/27 09:38:02;;;;;;;14.80;2.95;;;4.40;83.00;;;;;;5080177;28;20518;-66
2023/03/27 09:40:57;;;;;;;10.60;2.47;;;4.30;84.00;;;;;;5076128;28;20029;-66
2023/03/27 09:43:46;;;;;;;9.80;2.67;;;4.60;83.50;;;;;;5074205;28;20360;-66
2023/03/27 09:46:18;;;;;;;8.63;2.10;;;5.20;82.00;;;;;;5080128;28;20036;-65
2023/03/27 09:49:15;;;;;;;7.53;2.35;;;5.50;80.80;;;;;;5085712;28;20056;-66
2023/03/27 09:51:47;;;;;;;7.47;2.30;;;6.00;79.60;;;;;;5094770;28;20032;-66
2023/03/27 09:54:16;;;;;;;9.43;2.40;;;5.90;79.50;;;;;;5084958;28;20024;-66
2023/03/27 09:56:46;;;;;;;15.30;2.53;;;5.60;79.10;;;;;;5076637;28;20032;-66
2023/03/27 09:59:31;;;;;;;14.60;4.47;;;5.20;79.60;;;;;;5074556;28;20028;-66
2023/03/27 10:01:59;;;;;;;10.30;3.13;;;4.90;81.60;;;;;;5078330;28;20440;-66
2023/03/27 10:04:28;;;;;;;12.82;3.42;;;4.80;81.60;;;;;;5086560;28;20032;-65
2023/03/27 10:07:07;;;;;;;11.38;3.35;;;4.90;81.80;;;;;;5080159;28;20051;-66
2023/03/27 10:09:37;;;;;;;11.68;3.20;;;5.50;79.80;;;;;;5075554;28;20035;-66
2023/03/27 10:12:08;;;;;;;9.45;2.72;;;6.00;78.30;;;;;;5076887;28;20267;-66
2023/03/27 10:14:42;;;;;;;8.07;2.15;;;6.10;77.00;;;;;;5075163;28;20054;-66
2023/03/27 10:17:20;;;;;;;7.90;2.20;;;6.60;78.30;;;;;;5075688;28;20103;-66
2023/03/27 10:19:46;;;;;;;8.65;1.98;;;7.90;73.70;;;;;;5075521;28;20068;-66
2023/03/27 10:22:20;;;;;;;8.52;2.65;;;8.80;69.60;;;;;;5077575;28;20035;-66
2023/03/27 10:24:47;;;;;;;10.73;2.75;;;9.30;68.00;;;;;;5075205;28;20029;-66
2023/03/27 10:27:22;;;;;;;8.20;2.72;;;8.90;68.30;;;;;;5078885;28;20040;-66
2023/03/27 10:29:47;;;;;;;9.90;2.08;;;9.00;69.10;;;;;;5075319;28;20025;-65
2023/03/27 10:32:13;;;;;;;9.30;2.08;;;8.40;69.00;;;;;;5075548;28;20029;-65
2023/03/27 10:34:56;;;;;;;8.02;2.88;;;7.90;69.90;;;;;;5090866;28;20020;-65
2023/03/27 10:37:31;;;;;;;8.20;3.08;;;7.10;71.60;;;;;;5079165;28;20025;-65
2023/03/27 10:40:01;;;;;;;12.15;4.10;;;5.80;73.30;;;;;;5083266;28;20024;-67
2023/03/27 10:42:30;;;;;;;12.75;3.28;;;5.30;75.40;;;;;;5086156;28;20032;-67
2023/03/27 10:44:56;;;;;;;12.60;2.75;;;5.10;74.20;;;;;;5099078;28;20438;-67
2023/03/27 10:47:24;;;;;;;7.63;2.15;;;6.40;75.90;;;;;;5092347;28;20023;-66
2023/03/27 10:50:00;;;;;;;8.27;2.55;;;8.70;70.90;;;;;;5081322;28;20740;-66
2023/03/27 10:52:47;;;;;;;14.18;3.00;;;8.60;66.00;;;;;;5080213;28;20028;-67
2023/03/27 10:55:47;;;;;;;7.22;2.97;;;6.80;69.10;;;;;;5089430;28;20068;-65
2023/03/27 10:58:46;;;;;;;9.68;3.00;;;5.90;71.50;;;;;;5088068;28;20040;-66
2023/03/27 11:01:23;;;;;;;8.73;2.30;;;6.60;73.40;;;;;;5083396;28;20028;-66
2023/03/27 11:03:59;;;;;;;7.38;2.10;;;7.40;69.40;;;;;;5099010;28;20103;-67
2023/03/27 11:06:33;;;;;;;10.02;2.75;;;6.80;67.00;;;;;;5098652;28;20428;-66
2023/03/27 11:09:22;;;;;;;8.02;2.03;;;6.20;69.00;;;;;;5098794;28;20035;-66
2023/03/27 11:11:54;;;;;;;8.82;2.30;;;6.30;68.80;;;;;;5098635;28;20028;-66
2023/03/27 11:14:24;;;;;;;5.43;1.90;;;7.40;68.80;;;;;;5094938;28;20035;-66
2023/03/27 11:16:57;;;;;;;7.35;2.03;;;7.40;66.40;;;;;;5098518;28;20074;-66
2023/03/27 11:19:33;;;;;;;7.63;2.08;;;6.70;67.60;;;;;;5098653;28;20044;-66
2023/03/27 11:22:06;;;;;;;7.88;1.77;;;6.50;68.20;;;;;;5087996;28;20043;-65
2023/03/27 11:24:50;;;;;;;5.93;1.90;;;6.60;68.00;;;;;;5078068;28;20024;-64
2023/03/27 11:27:33;;;;;;;6.82;2.50;;;6.00;67.90;;;;;;5075616;28;20124;-64
2023/03/27 11:30:23;;;;;;;9.73;2.08;;;5.50;68.80;;;;;;5087601;28;20032;-65
2023/03/27 11:33:08;;;;;;;4.28;1.70;;;5.00;67.40;;;;;;5094630;28;20447;-65
2023/03/27 11:35:51;;;;;;;7.28;1.55;;;5.10;65.10;;;;;;5077496;28;20313;-65
2023/03/27 11:38:24;;;;;;;4.85;2.30;;;6.50;62.80;;;;;;5078013;28;20099;-65
2023/03/27 11:40:50;;;;;;;6.30;1.60;;;8.30;63.00;;;;;;5077941;28;20016;-65
2023/03/27 11:43:18;;;;;;;5.55;1.80;;;8.70;61.40;;;;;;5076538;28;20173;-65
2023/03/27 11:46:05;;;;;;;7.82;2.80;;;8.40;62.10;;;;;;5077767;28;20028;-65
2023/03/27 11:48:51;;;;;;;7.00;2.60;;;8.10;63.30;;;;;;5082190;28;20103;-65
2023/03/27 11:51:56;;;;;;;8.13;2.53;;;7.20;66.10;;;;;;5081729;28;20316;-65
2023/03/27 11:54:35;;;;;;;11.05;3.35;;;6.50;67.60;;;;;;5085369;28;20348;-65
2023/03/27 11:57:04;;;;;;;10.48;3.03;;;6.20;70.20;;;;;;5077420;28;20036;-65
2023/03/27 11:59:42;;;;;;;11.07;2.85;;;6.90;69.40;;;;;;5085439;28;20031;-65
2023/03/27 12:02:08;;;;;;;4.97;1.65;;;7.70;66.60;;;;;;5094214;28;20020;-65
2023/03/27 12:04:58;;;;;;;6.53;1.80;;;7.70;63.30;;;;;;5096294;28;20081;-65
2023/03/27 12:07:57;;;;;;;7.05;2.30;;;8.20;63.40;;;;;;5086654;28;20059;-65
2023/03/27 12:10:31;;;;;;;8.48;1.85;;;8.50;63.40;;;;;;5096890;28;20417;-65
2023/03/27 12:13:22;;;;;;;7.25;1.90;;;8.90;61.70;;;;;;5080193;28;20045;-65
2023/03/27 12:16:18;;;;;;;7.18;3.03;;;8.50;62.60;;;;;;5068419;28;20029;-64
2023/03/27 12:19:12;;;;;;;10.35;1.77;;;7.30;63.90;;;;;;5083052;28;20028;-64
2023/03/27 12:21:45;;;;;;;8.60;2.75;;;6.30;62.60;;;;;;5082929;28;20035;-64
2023/03/27 12:24:39;;;;;;;5.60;1.90;;;6.30;64.10;;;;;;5097188;28;20023;-64
2023/03/27 12:27:46;;;;;;;4.93;1.55;;;7.70;65.00;;;;;;5086543;28;20028;-64
2023/03/27 12:30:45;;;;;;;5.22;2.10;;;8.30;61.00;;;;;;5077648;28;20024;-64
2023/03/27 12:33:36;;;;;;;9.65;3.45;;;8.50;62.30;;;;;;5091383;28;20051;-64
2023/03/27 12:36:08;;;;;;;9.35;2.30;;;8.30;64.30;;;;;;5078015;28;20030;-65
2023/03/27 12:38:40;;;;;;;9.55;2.75;;;8.50;62.00;;;;;;5082887;28;20033;-65
2023/03/27 12:41:32;;;;;;;11.50;4.00;;;8.50;62.90;;;;;;5083780;28;20046;-64
2023/03/27 12:43:59;;;;;;;6.40;2.70;;;8.00;63.70;;;;;;5078168;28;20344;-65
2023/03/27 12:46:27;;;;;;;8.13;2.05;;;6.90;66.00;;;;;;5085560;28;20035;-65
2023/03/27 12:49:12;;;;;;;6.05;1.88;;;6.80;68.10;;;;;;5079839;28;20251;-64
2023/03/27 12:51:50;;;;;;;15.77;5.95;;;7.50;68.30;;;;;;5087444;28;20028;-64
2023/03/27 12:54:24;;;;;;;7.97;2.40;;;7.50;67.40;;;;;;5095169;28;20119;-64
2023/03/27 12:56:50;;;;;;;7.70;2.35;;;7.40;67.20;;;;;;5089506;28;20043;-64
2023/03/27 12:59:22;;;;;;;6.43;1.60;;;7.30;66.00;;;;;;5078153;28;20107;-63
2023/03/27 13:01:54;;;;;;;7.07;2.13;;;7.00;64.70;;;;;;5093611;28;20046;-64
2023/03/27 13:04:57;;;;;;;6.72;2.25;;;6.70;65.90;;;;;;5091767;28;20051;-64
2023/03/27 13:07:32;;;;;;;5.85;1.92;;;6.80;66.20;;;;;;5086735;28;20374;-63
2023/03/27 13:10:32;;;;;;;14.60;4.15;;;6.60;67.00;;;;;;5094844;28;20024;-64
2023/03/27 13:13:17;;;;;;;8.35;2.58;;;6.60;67.10;;;;;;5086469;28;20032;-64
2023/03/27 13:16:11;;;;;;;9.00;3.40;;;6.50;67.40;;;;;;5087054;28;20360;-63
2023/03/27 13:18:58;;;;;;;5.88;2.15;;;6.60;67.90;;;;;;5092904;28;20374;-64
2023/03/27 13:21:45;;;;;;;10.80;1.80;;;7.10;67.00;;;;;;5087965;28;20541;-64